Frances Anne — WDE8555 — position and weather

sailwx.info

Track history (hours):
 
Tides and Currents Weather Stations Pressure Air Temp Water Temp Dewpoint Dewpoint Depression Visibility Wind Speed Wind Dir Waves Ship Positions

Frances Anne

Owner: Frances Anne Inc., West Creek, NJ. More information available from US FCC via Universal Licensing System and Coast Guard Vessel Documentation Center.

Last reported at 2014-Oct-01 11:33 UTC. Time now 2014-Oct-02 10:38 UTC.
Position N 39°42' W 071°48'.

Type: Fishing. MMSI: 367406910.

Date/timePositionNaut miles runAvg speedWind from/ knotsBaromVisibWave heightAir tempDewpointWater temp
2014-Oct-01 11:33N 39°42' W 071°48'4 4.2
2014-Oct-01 10:31N 39°39' W 071°52'11 1.2
2014-Oct-01 01:25N 39°47' W 071°40'6 6.6
2014-Oct-01 00:28N 39°50' W 071°33'7 6.9
2014-Sep-30 23:24N 39°52' W 071°24'6 6.9
2014-Sep-30 22:33N 39°53' W 071°17'6 5.9
2014-Sep-30 21:31N 39°54' W 071°09'16 3.2
2014-Sep-30 16:29N 39°50' W 071°30'4 4.0
2014-Sep-30 15:33N 39°49' W 071°34'4 3.6
2014-Sep-30 14:33N 39°48' W 071°39'4 4.2
2014-Sep-30 13:33N 39°44' W 071°42'4 3.7
2014-Sep-30 12:33N 39°43' W 071°47'3 2.7
2014-Sep-30 11:28N 39°41' W 071°50'1 0.7
2014-Sep-30 10:31N 39°41' W 071°49'3 2.3
2014-Sep-30 09:24N 39°41' W 071°46'1 0.9
2014-Sep-30 08:27N 39°41' W 071°45'1 0.6
2014-Sep-30 07:30N 39°41' W 071°44'1 0.6
2014-Sep-30 06:30N 39°42' W 071°44'6 6.8
2014-Sep-30 05:33N 39°44' W 071°36'8 7.6
2014-Sep-30 04:33N 39°47' W 071°27'7 7.4
2014-Sep-30 03:33N 39°50' W 071°18'7 7.1
2014-Sep-30 02:33N 39°53' W 071°09'4 4.1
2014-Sep-30 01:33N 39°53' W 071°15'7 7.2
2014-Sep-30 00:33N 39°51' W 071°24'7 7.2
2014-Sep-29 23:33N 39°49' W 071°33'7 7.1
2014-Sep-29 22:33N 39°45' W 071°41'7 7.3
2014-Sep-29 21:33N 39°40' W 071°47'1 1.2
2014-Sep-29 20:33N 39°40' W 071°49'1 0.8
2014-Sep-29 19:33N 39°41' W 071°48'0 0.2
2014-Sep-29 18:33N 39°40' W 071°48'0 0.2
2014-Sep-29 17:33N 39°40' W 071°48'1 1.3
2014-Sep-29 16:33N 39°40' W 071°46'3 3.4
2014-Sep-29 15:33N 39°37' W 071°48'7 6.9
2014-Sep-29 14:33N 39°33' W 071°55'7 6.8
2014-Sep-29 13:33N 39°29' W 072°02'7 6.9
2014-Sep-29 12:31N 39°24' W 072°09'7 7.1
2014-Sep-29 11:33N 39°20' W 072°16'7 6.8
2014-Sep-29 10:30N 39°20' W 072°25'7 7.8
2014-Sep-29 09:33N 39°22' W 072°34'8 8.0
2014-Sep-29 08:33N 39°25' W 072°44'8 8.4
2014-Sep-29 07:33N 39°28' W 072°54'8 8.3
2014-Sep-29 06:33N 39°31' W 073°04'8 8.0
2014-Sep-29 05:33N 39°34' W 073°14'8 7.9
2014-Sep-29 04:33N 39°36' W 073°23'8 8.4
2014-Sep-29 03:33N 39°39' W 073°34'8 8.2
2014-Sep-29 02:33N 39°41' W 073°44'7 7.5
2014-Sep-29 01:33N 39°43' W 073°53'8 7.6
2014-Sep-29 00:33N 39°45' W 074°03'3 2.8
2014-Sep-28 23:32N 39°46' W 074°07'0 0.0
2014-Sep-28 22:17N 39°46' W 074°07'0 0.0
2014-Sep-28 21:29N 39°46' W 074°07'0 0.0
2014-Sep-28 20:17N 39°46' W 074°07'0 0.0
2014-Sep-28 19:23N 39°46' W 074°07'0 0.0
2014-Sep-28 18:17N 39°46' W 074°07'0 0.0
2014-Sep-28 17:29N 39°46' W 074°07'0 0.0
2014-Sep-28 16:29N 39°46' W 074°07'0 0.0
2014-Sep-28 15:29N 39°46' W 074°07'0 0.0
2014-Sep-28 14:23N 39°46' W 074°07'0 0.0
2014-Sep-28 13:23N 39°46' W 074°07'0 0.1
2014-Sep-28 12:31N 39°46' W 074°07'0 0.0
2014-Sep-28 11:31N 39°46' W 074°07'0 0.0
2014-Sep-28 10:25N 39°46' W 074°07'0 0.0
2014-Sep-28 09:10N 39°46' W 074°07'0 0.0
2014-Sep-28 08:28N 39°46' W 074°07'0 0.0
2014-Sep-28 07:31N 39°46' W 074°07'0 0.0
2014-Sep-28 06:31N 39°46' W 074°07'0 0.0
2014-Sep-28 05:31N 39°46' W 074°07'0 0.0
2014-Sep-28 04:25N 39°46' W 074°07'0 0.0
2014-Sep-28 03:31N 39°46' W 074°07'0 0.0
2014-Sep-28 02:31N 39°46' W 074°07'0 0.0
2014-Sep-28 01:31N 39°46' W 074°07'0 0.0
2014-Sep-28 00:31N 39°46' W 074°07'0 0.0
2014-Sep-27 23:31N 39°46' W 074°07'0 0.0
2014-Sep-27 22:31N 39°46' W 074°07'0 0.0
2014-Sep-27 21:19N 39°46' W 074°07'0 0.0
2014-Sep-27 20:31N 39°46' W 074°07'0 0.0
2014-Sep-27 19:31N 39°46' W 074°07'0 0.0
2014-Sep-27 18:31N 39°46' W 074°07'0 0.0
2014-Sep-27 17:19N 39°46' W 074°07'0 0.0
2014-Sep-27 16:31N 39°46' W 074°07'0 0.0
2014-Sep-27 15:31N 39°46' W 074°06'0 0.0
2014-Sep-27 14:25N 39°46' W 074°07'0 0.0
2014-Sep-27 13:31N 39°46' W 074°07'0 0.0
2014-Sep-27 12:25N 39°46' W 074°07'0 0.0
2014-Sep-27 11:28N 39°46' W 074°07'0 0.0
2014-Sep-27 10:22N 39°46' W 074°07'0 0.0
2014-Sep-27 09:31N 39°46' W 074°07'0 0.0
2014-Sep-27 08:28N 39°46' W 074°07'0 0.0
2014-Sep-27 07:22N 39°46' W 074°07'0 0.0
2014-Sep-27 06:16N 39°46' W 074°07'0 0.0
2014-Sep-27 05:28N 39°46' W 074°07'0 0.0
2014-Sep-27 04:28N 39°46' W 074°07'0 0.0
2014-Sep-27 03:22N 39°46' W 074°07'0 0.0
2014-Sep-27 02:28N 39°46' W 074°07'0 0.0
2014-Sep-27 01:22N 39°46' W 074°07'0 0.0
2014-Sep-27 00:22N 39°46' W 074°07'0 0.0
2014-Sep-26 23:16N 39°46' W 074°07'0 0.0
2014-Sep-26 15:19N 39°46' W 074°07'0 0.0
2014-Sep-26 14:13N 39°46' W 074°07'0 0.0
2014-Sep-26 13:28N 39°46' W 074°07'0 0.0
2014-Sep-26 12:22N 39°46' W 074°07'0 0.0
2014-Sep-26 11:22N 39°46' W 074°07'0 0.0
2014-Sep-25 22:25N 39°46' W 074°07'0 0.0
2014-Sep-25 17:31N 39°46' W 074°07'0 0.0
2014-Sep-25 14:28N 39°46' W 074°07'0 0.0
2014-Sep-25 13:28N 39°46' W 074°07'0 0.0
2014-Sep-25 12:28N 39°46' W 074°07'0 0.0
2014-Sep-25 11:28N 39°46' W 074°07'0 0.0
2014-Sep-24 19:28N 39°46' W 074°07'0 0.0
2014-Sep-24 18:28N 39°46' W 074°07'0 0.0
2014-Sep-24 17:28N 39°46' W 074°07'0 0.0
2014-Sep-24 16:22N 39°46' W 074°07'0 0.0
2014-Sep-24 15:28N 39°46' W 074°07'0 0.0
2014-Sep-24 14:28N 39°46' W 074°07'0 0.0
2014-Sep-24 13:16N 39°46' W 074°07'0 0.0
2014-Sep-24 12:16N 39°46' W 074°07'0 0.0
2014-Sep-24 11:28N 39°46' W 074°07'0 0.0
2014-Sep-24 10:28N 39°46' W 074°07'0 0.0
2014-Sep-24 09:28N 39°46' W 074°07'0 0.0
2014-Sep-24 08:28N 39°46' W 074°07'0 0.0
2014-Sep-24 07:16N 39°46' W 074°07'0 0.0
2014-Sep-24 06:22N 39°46' W 074°07'0 0.0
2014-Sep-24 05:28N 39°46' W 074°07'0 0.0
2014-Sep-24 04:28N 39°46' W 074°07'0 0.0
2014-Sep-24 03:28N 39°46' W 074°07'0 0.0
2014-Sep-24 02:28N 39°46' W 074°07'0 0.0
2014-Sep-24 01:31N 39°46' W 074°07'0 0.0
2014-Sep-24 00:31N 39°46' W 074°06'0 0.0
2014-Sep-23 23:31N 39°46' W 074°07'0 0.0
2014-Sep-23 22:25N 39°46' W 074°07'0 0.0
2014-Sep-23 21:31N 39°46' W 074°07'0 0.0
2014-Sep-23 20:31N 39°46' W 074°07'0 0.0
2014-Sep-23 19:31N 39°46' W 074°07'0 0.0
2014-Sep-23 18:31N 39°46' W 074°07'0 0.0
2014-Sep-23 17:31N 39°46' W 074°07'0 0.0
2014-Sep-23 16:31N 39°46' W 074°07'0 0.0
2014-Sep-23 11:31N 39°46' W 074°07'0 0.0
2014-Sep-23 05:13N 39°46' W 074°07'0 0.0
2014-Sep-23 04:31N 39°46' W 074°07'0 0.0
2014-Sep-23 03:31N 39°46' W 074°07'0 0.0
2014-Sep-23 02:31N 39°46' W 074°07'0 0.0
2014-Sep-23 01:31N 39°46' W 074°07'0 0.0
2014-Sep-23 00:25N 39°46' W 074°07'0 0.0
2014-Sep-22 23:31N 39°46' W 074°07'0 0.0
2014-Sep-22 22:22N 39°46' W 074°07'0 0.0
2014-Sep-22 21:22N 39°46' W 074°07'0 0.0
2014-Sep-22 20:31N 39°46' W 074°07'0 0.0
2014-Sep-22 19:25N 39°46' W 074°07'0 0.0
2014-Sep-22 18:25N 39°46' W 074°07'0 0.0
2014-Sep-22 17:31N 39°46' W 074°07'0 0.0
2014-Sep-22 16:31N 39°46' W 074°07'0 0.0
2014-Sep-22 15:31N 39°46' W 074°07'0 0.0
2014-Sep-22 14:25N 39°46' W 074°07'0 0.0
2014-Sep-22 13:31N 39°46' W 074°07'0 0.0
2014-Sep-22 12:31N 39°46' W 074°07'0 0.0
2014-Sep-22 11:31N 39°46' W 074°07'0 0.0
2014-Sep-22 10:31N 39°46' W 074°07'0 0.0
2014-Sep-22 09:31N 39°46' W 074°07'0 0.0
2014-Sep-22 08:25N 39°46' W 074°07'0 0.0
2014-Sep-22 07:31N 39°46' W 074°07'0 0.0
2014-Sep-22 06:31N 39°46' W 074°07'0 0.0
2014-Sep-22 05:31N 39°46' W 074°07'0 0.0
2014-Sep-22 04:31N 39°46' W 074°07'0 0.0
2014-Sep-22 03:13N 39°46' W 074°07'0 0.0
2014-Sep-22 02:31N 39°46' W 074°07'0 0.0
2014-Sep-22 01:19N 39°46' W 074°07'0 0.0
2014-Sep-22 00:19N 39°46' W 074°07'0 0.0
2014-Sep-21 23:31N 39°46' W 074°07'0 0.0
2014-Sep-21 22:25N 39°46' W 074°07'0 0.0
2014-Sep-21 21:28N 39°46' W 074°07'0 0.0
2014-Sep-21 20:22N 39°46' W 074°07'0 0.0
2014-Sep-21 19:28N 39°46' W 074°07'0 0.0
2014-Sep-21 18:22N 39°46' W 074°07'0 0.0
2014-Sep-21 17:16N 39°46' W 074°07'0 0.0
2014-Sep-21 16:28N 39°46' W 074°07'0 0.0
2014-Sep-21 15:28N 39°46' W 074°07'0 0.0
2014-Sep-21 14:31N 39°46' W 074°07'0 0.0
2014-Sep-21 13:31N 39°46' W 074°07'0 0.0
2014-Sep-21 12:31N 39°46' W 074°07'  
Track history (hours):
 
Tides and Currents Weather Stations Pressure Air Temp Water Temp Dewpoint Dewpoint Depression Visibility Wind Speed Wind Dir Waves Ship Positions

Frances Anne

Owner: Frances Anne Inc., West Creek, NJ. More information available from US FCC via Universal Licensing System and Coast Guard Vessel Documentation Center.

Last reported at 2014-Oct-01 11:33 UTC. Time now 2014-Oct-02 10:38 UTC.
Position N 39°42' W 071°48'.

Type: Fishing. MMSI: 367406910.

Date/timePositionNaut miles runAvg speedWind from/ knotsBaromVisibWave heightAir tempDewpointWater temp
2014-Oct-01 11:33N 39°42' W 071°48'4 4.2
2014-Oct-01 10:31N 39°39' W 071°52'11 1.2
2014-Oct-01 01:25N 39°47' W 071°40'6 6.6
2014-Oct-01 00:28N 39°50' W 071°33'7 6.9
2014-Sep-30 23:24N 39°52' W 071°24'6 6.9
2014-Sep-30 22:33N 39°53' W 071°17'6 5.9
2014-Sep-30 21:31N 39°54' W 071°09'16 3.2
2014-Sep-30 16:29N 39°50' W 071°30'4 4.0
2014-Sep-30 15:33N 39°49' W 071°34'4 3.6
2014-Sep-30 14:33N 39°48' W 071°39'4 4.2
2014-Sep-30 13:33N 39°44' W 071°42'4 3.7
2014-Sep-30 12:33N 39°43' W 071°47'3 2.7
2014-Sep-30 11:28N 39°41' W 071°50'1 0.7
2014-Sep-30 10:31N 39°41' W 071°49'3 2.3
2014-Sep-30 09:24N 39°41' W 071°46'1 0.9
2014-Sep-30 08:27N 39°41' W 071°45'1 0.6
2014-Sep-30 07:30N 39°41' W 071°44'1 0.6
2014-Sep-30 06:30N 39°42' W 071°44'6 6.8
2014-Sep-30 05:33N 39°44' W 071°36'8 7.6
2014-Sep-30 04:33N 39°47' W 071°27'7 7.4
2014-Sep-30 03:33N 39°50' W 071°18'7 7.1
2014-Sep-30 02:33N 39°53' W 071°09'4 4.1
2014-Sep-30 01:33N 39°53' W 071°15'7 7.2
2014-Sep-30 00:33N 39°51' W 071°24'7 7.2
2014-Sep-29 23:33N 39°49' W 071°33'7 7.1
2014-Sep-29 22:33N 39°45' W 071°41'7 7.3
2014-Sep-29 21:33N 39°40' W 071°47'1 1.2
2014-Sep-29 20:33N 39°40' W 071°49'1 0.8
2014-Sep-29 19:33N 39°41' W 071°48'0 0.2
2014-Sep-29 18:33N 39°40' W 071°48'0 0.2
2014-Sep-29 17:33N 39°40' W 071°48'1 1.3
2014-Sep-29 16:33N 39°40' W 071°46'3 3.4
2014-Sep-29 15:33N 39°37' W 071°48'7 6.9
2014-Sep-29 14:33N 39°33' W 071°55'7 6.8
2014-Sep-29 13:33N 39°29' W 072°02'7 6.9
2014-Sep-29 12:31N 39°24' W 072°09'7 7.1
2014-Sep-29 11:33N 39°20' W 072°16'7 6.8
2014-Sep-29 10:30N 39°20' W 072°25'7 7.8
2014-Sep-29 09:33N 39°22' W 072°34'8 8.0
2014-Sep-29 08:33N 39°25' W 072°44'8 8.4
2014-Sep-29 07:33N 39°28' W 072°54'8 8.3
2014-Sep-29 06:33N 39°31' W 073°04'8 8.0
2014-Sep-29 05:33N 39°34' W 073°14'8 7.9
2014-Sep-29 04:33N 39°36' W 073°23'8 8.4
2014-Sep-29 03:33N 39°39' W 073°34'8 8.2
2014-Sep-29 02:33N 39°41' W 073°44'7 7.5
2014-Sep-29 01:33N 39°43' W 073°53'8 7.6
2014-Sep-29 00:33N 39°45' W 074°03'3 2.8
2014-Sep-28 23:32N 39°46' W 074°07'0 0.0
2014-Sep-28 22:17N 39°46' W 074°07'0 0.0
2014-Sep-28 21:29N 39°46' W 074°07'0 0.0
2014-Sep-28 20:17N 39°46' W 074°07'0 0.0
2014-Sep-28 19:23N 39°46' W 074°07'0 0.0
2014-Sep-28 18:17N 39°46' W 074°07'0 0.0
2014-Sep-28 17:29N 39°46' W 074°07'0 0.0
2014-Sep-28 16:29N 39°46' W 074°07'0 0.0
2014-Sep-28 15:29N 39°46' W 074°07'0 0.0
2014-Sep-28 14:23N 39°46' W 074°07'0 0.0
2014-Sep-28 13:23N 39°46' W 074°07'0 0.1
2014-Sep-28 12:31N 39°46' W 074°07'0 0.0
2014-Sep-28 11:31N 39°46' W 074°07'0 0.0
2014-Sep-28 10:25N 39°46' W 074°07'0 0.0
2014-Sep-28 09:10N 39°46' W 074°07'0 0.0
2014-Sep-28 08:28N 39°46' W 074°07'0 0.0
2014-Sep-28 07:31N 39°46' W 074°07'0 0.0
2014-Sep-28 06:31N 39°46' W 074°07'0 0.0
2014-Sep-28 05:31N 39°46' W 074°07'0 0.0
2014-Sep-28 04:25N 39°46' W 074°07'0 0.0
2014-Sep-28 03:31N 39°46' W 074°07'0 0.0
2014-Sep-28 02:31N 39°46' W 074°07'0 0.0
2014-Sep-28 01:31N 39°46' W 074°07'0 0.0
2014-Sep-28 00:31N 39°46' W 074°07'0 0.0
2014-Sep-27 23:31N 39°46' W 074°07'0 0.0
2014-Sep-27 22:31N 39°46' W 074°07'0 0.0
2014-Sep-27 21:19N 39°46' W 074°07'0 0.0
2014-Sep-27 20:31N 39°46' W 074°07'0 0.0
2014-Sep-27 19:31N 39°46' W 074°07'0 0.0
2014-Sep-27 18:31N 39°46' W 074°07'0 0.0
2014-Sep-27 17:19N 39°46' W 074°07'0 0.0
2014-Sep-27 16:31N 39°46' W 074°07'0 0.0
2014-Sep-27 15:31N 39°46' W 074°06'0 0.0
2014-Sep-27 14:25N 39°46' W 074°07'0 0.0
2014-Sep-27 13:31N 39°46' W 074°07'0 0.0
2014-Sep-27 12:25N 39°46' W 074°07'0 0.0
2014-Sep-27 11:28N 39°46' W 074°07'0 0.0
2014-Sep-27 10:22N 39°46' W 074°07'0 0.0
2014-Sep-27 09:31N 39°46' W 074°07'0 0.0
2014-Sep-27 08:28N 39°46' W 074°07'0 0.0
2014-Sep-27 07:22N 39°46' W 074°07'0 0.0
2014-Sep-27 06:16N 39°46' W 074°07'0 0.0
2014-Sep-27 05:28N 39°46' W 074°07'0 0.0
2014-Sep-27 04:28N 39°46' W 074°07'0 0.0
2014-Sep-27 03:22N 39°46' W 074°07'0 0.0
2014-Sep-27 02:28N 39°46' W 074°07'0 0.0
2014-Sep-27 01:22N 39°46' W 074°07'0 0.0
2014-Sep-27 00:22N 39°46' W 074°07'0 0.0
2014-Sep-26 23:16N 39°46' W 074°07'0 0.0
2014-Sep-26 15:19N 39°46' W 074°07'0 0.0
2014-Sep-26 14:13N 39°46' W 074°07'0 0.0
2014-Sep-26 13:28N 39°46' W 074°07'0 0.0
2014-Sep-26 12:22N 39°46' W 074°07'0 0.0
2014-Sep-26 11:22N 39°46' W 074°07'0 0.0
2014-Sep-25 22:25N 39°46' W 074°07'0 0.0
2014-Sep-25 17:31N 39°46' W 074°07'0 0.0
2014-Sep-25 14:28N 39°46' W 074°07'0 0.0
2014-Sep-25 13:28N 39°46' W 074°07'0 0.0
2014-Sep-25 12:28N 39°46' W 074°07'0 0.0
2014-Sep-25 11:28N 39°46' W 074°07'0 0.0
2014-Sep-24 19:28N 39°46' W 074°07'0 0.0
2014-Sep-24 18:28N 39°46' W 074°07'0 0.0
2014-Sep-24 17:28N 39°46' W 074°07'0 0.0
2014-Sep-24 16:22N 39°46' W 074°07'0 0.0
2014-Sep-24 15:28N 39°46' W 074°07'0 0.0
2014-Sep-24 14:28N 39°46' W 074°07'0 0.0
2014-Sep-24 13:16N 39°46' W 074°07'0 0.0
2014-Sep-24 12:16N 39°46' W 074°07'0 0.0
2014-Sep-24 11:28N 39°46' W 074°07'0 0.0
2014-Sep-24 10:28N 39°46' W 074°07'0 0.0
2014-Sep-24 09:28N 39°46' W 074°07'0 0.0
2014-Sep-24 08:28N 39°46' W 074°07'0 0.0
2014-Sep-24 07:16N 39°46' W 074°07'0 0.0
2014-Sep-24 06:22N 39°46' W 074°07'0 0.0
2014-Sep-24 05:28N 39°46' W 074°07'0 0.0
2014-Sep-24 04:28N 39°46' W 074°07'0 0.0
2014-Sep-24 03:28N 39°46' W 074°07'0 0.0
2014-Sep-24 02:28N 39°46' W 074°07'0 0.0
2014-Sep-24 01:31N 39°46' W 074°07'0 0.0
2014-Sep-24 00:31N 39°46' W 074°06'0 0.0
2014-Sep-23 23:31N 39°46' W 074°07'0 0.0
2014-Sep-23 22:25N 39°46' W 074°07'0 0.0
2014-Sep-23 21:31N 39°46' W 074°07'0 0.0
2014-Sep-23 20:31N 39°46' W 074°07'0 0.0
2014-Sep-23 19:31N 39°46' W 074°07'0 0.0
2014-Sep-23 18:31N 39°46' W 074°07'0 0.0
2014-Sep-23 17:31N 39°46' W 074°07'0 0.0
2014-Sep-23 16:31N 39°46' W 074°07'0 0.0
2014-Sep-23 11:31N 39°46' W 074°07'0 0.0
2014-Sep-23 05:13N 39°46' W 074°07'0 0.0
2014-Sep-23 04:31N 39°46' W 074°07'0 0.0
2014-Sep-23 03:31N 39°46' W 074°07'0 0.0
2014-Sep-23 02:31N 39°46' W 074°07'0 0.0
2014-Sep-23 01:31N 39°46' W 074°07'0 0.0
2014-Sep-23 00:25N 39°46' W 074°07'0 0.0
2014-Sep-22 23:31N 39°46' W 074°07'0 0.0
2014-Sep-22 22:22N 39°46' W 074°07'0 0.0
2014-Sep-22 21:22N 39°46' W 074°07'0 0.0
2014-Sep-22 20:31N 39°46' W 074°07'0 0.0
2014-Sep-22 19:25N 39°46' W 074°07'0 0.0
2014-Sep-22 18:25N 39°46' W 074°07'0 0.0
2014-Sep-22 17:31N 39°46' W 074°07'0 0.0
2014-Sep-22 16:31N 39°46' W 074°07'0 0.0
2014-Sep-22 15:31N 39°46' W 074°07'0 0.0
2014-Sep-22 14:25N 39°46' W 074°07'0 0.0
2014-Sep-22 13:31N 39°46' W 074°07'0 0.0
2014-Sep-22 12:31N 39°46' W 074°07'0 0.0
2014-Sep-22 11:31N 39°46' W 074°07'0 0.0
2014-Sep-22 10:31N 39°46' W 074°07'0 0.0
2014-Sep-22 09:31N 39°46' W 074°07'0 0.0
2014-Sep-22 08:25N 39°46' W 074°07'0 0.0
2014-Sep-22 07:31N 39°46' W 074°07'0 0.0
2014-Sep-22 06:31N 39°46' W 074°07'0 0.0
2014-Sep-22 05:31N 39°46' W 074°07'0 0.0
2014-Sep-22 04:31N 39°46' W 074°07'0 0.0
2014-Sep-22 03:13N 39°46' W 074°07'0 0.0
2014-Sep-22 02:31N 39°46' W 074°07'0 0.0
2014-Sep-22 01:19N 39°46' W 074°07'0 0.0
2014-Sep-22 00:19N 39°46' W 074°07'0 0.0
2014-Sep-21 23:31N 39°46' W 074°07'0 0.0
2014-Sep-21 22:25N 39°46' W 074°07'0 0.0
2014-Sep-21 21:28N 39°46' W 074°07'0 0.0
2014-Sep-21 20:22N 39°46' W 074°07'0 0.0
2014-Sep-21 19:28N 39°46' W 074°07'0 0.0
2014-Sep-21 18:22N 39°46' W 074°07'0 0.0
2014-Sep-21 17:16N 39°46' W 074°07'0 0.0
2014-Sep-21 16:28N 39°46' W 074°07'0 0.0
2014-Sep-21 15:28N 39°46' W 074°07'0 0.0
2014-Sep-21 14:31N 39°46' W 074°07'0 0.0
2014-Sep-21 13:31N 39°46' W 074°07'0 0.0
2014-Sep-21 12:31N 39°46' W 074°07'  

Dump ship's entire track history